FALA

Lanseria Airport

Johannesburg, South Africa
METAR FALA 190500Z 19006KT 160V230 CAVOK 23/07 Q1018 NOSIG
Observed Flight Rules
Jan-19 @ 05:00 UTC (an hour ago) Visual Flight Rules
Wind Visibility Clouds
190° at 6 knots 10,000+ meters
  • Clear skies
Temperatures Readings
Current 23°C / 73°F
Dewpoint 7°C / 45°F
Humidity 36%
Altimeter 30.06" Hg
Pressure 1017.92 hPa
Elevation 1377
METAR FALA 190500Z 19006KT 160V230 CAVOK 23/07 Q1018 NOSIG
Observed Flight Rules
Jan-19 @ 05:00 UTC
(an hour ago)
VFR
Wind Visibility
190° at 6 knots 10,000+ meters
Clouds
  • Clear skies
Temperature Dewpoint
23°C / 73°F 7°C / 45°F
Humidity Altimeter Pressure
36% 30.06" Hg 1017.92 hPa